sensor_id;sensor_type;location;lat;lon;timestamp;temperature;humidity
43858;DHT22;29507;51.284;5.758;2022-12-07T00:01:41;2.80;99.90
43858;DHT22;29507;51.284;5.758;2022-12-07T00:04:10;2.80;99.90
43858;DHT22;29507;51.284;5.758;2022-12-07T00:06:40;2.80;99.90
43858;DHT22;29507;51.284;5.758;2022-12-07T00:09:08;2.80;99.90
43858;DHT22;29507;51.284;5.758;2022-12-07T00:11:34;2.80;99.90
43858;DHT22;29507;51.284;5.758;2022-12-07T00:14:02;2.80;99.90
43858;DHT22;29507;51.284;5.758;2022-12-07T00:16:30;2.80;99.90
43858;DHT22;29507;51.284;5.758;2022-12-07T00:18:57;2.80;99.90
43858;DHT22;29507;51.284;5.758;2022-12-07T00:21:25;2.80;99.90
43858;DHT22;29507;51.284;5.758;2022-12-07T00:23:52;2.80;99.90
43858;DHT22;29507;51.284;5.758;2022-12-07T00:26:20;2.90;99.90
43858;DHT22;29507;51.284;5.758;2022-12-07T00:28:48;3.00;99.90
43858;DHT22;29507;51.284;5.758;2022-12-07T00:31:15;3.00;99.90
43858;DHT22;29507;51.284;5.758;2022-12-07T00:33:41;3.00;99.90
43858;DHT22;29507;51.284;5.758;2022-12-07T00:36:10;2.90;99.90
43858;DHT22;29507;51.284;5.758;2022-12-07T00:38:38;2.90;99.90
43858;DHT22;29507;51.284;5.758;2022-12-07T00:41:06;2.90;99.90
43858;DHT22;29507;51.284;5.758;2022-12-07T00:43:32;2.90;99.90
43858;DHT22;29507;51.284;5.758;2022-12-07T00:45:58;2.90;99.90
43858;DHT22;29507;51.284;5.758;2022-12-07T00:48:24;2.90;99.90
43858;DHT22;29507;51.284;5.758;2022-12-07T00:50:50;2.80;99.90
43858;DHT22;29507;51.284;5.758;2022-12-07T00:53:16;2.80;99.90
43858;DHT22;29507;51.284;5.758;2022-12-07T00:55:42;2.80;99.90
43858;DHT22;29507;51.284;5.758;2022-12-07T00:58:08;2.70;99.90
43858;DHT22;29507;51.284;5.758;2022-12-07T01:00:39;2.60;99.90
43858;DHT22;29507;51.284;5.758;2022-12-07T01:03:06;2.50;99.90
43858;DHT22;29507;51.284;5.758;2022-12-07T01:05:32;2.60;99.90
43858;DHT22;29507;51.284;5.758;2022-12-07T01:07:58;2.60;99.90
43858;DHT22;29507;51.284;5.758;2022-12-07T01:10:24;2.50;99.90
43858;DHT22;29507;51.284;5.758;2022-12-07T01:12:49;2.50;99.90
43858;DHT22;29507;51.284;5.758;2022-12-07T01:15:15;2.40;99.90
43858;DHT22;29507;51.284;5.758;2022-12-07T01:17:40;2.40;99.90
43858;DHT22;29507;51.284;5.758;2022-12-07T01:20:07;2.30;99.90
43858;DHT22;29507;51.284;5.758;2022-12-07T01:22:39;2.20;99.90
43858;DHT22;29507;51.284;5.758;2022-12-07T01:25:06;2.20;99.90
43858;DHT22;29507;51.284;5.758;2022-12-07T01:27:33;2.20;99.90
43858;DHT22;29507;51.284;5.758;2022-12-07T01:29:59;2.20;99.90
43858;DHT22;29507;51.284;5.758;2022-12-07T01:32:24;2.10;99.90
43858;DHT22;29507;51.284;5.758;2022-12-07T01:34:50;2.00;99.90
43858;DHT22;29507;51.284;5.758;2022-12-07T01:37:15;2.10;99.90
43858;DHT22;29507;51.284;5.758;2022-12-07T01:39:41;2.10;99.90
43858;DHT22;29507;51.284;5.758;2022-12-07T01:42:11;2.10;99.90
43858;DHT22;29507;51.284;5.758;2022-12-07T01:45:28;2.10;99.90
43858;DHT22;29507;51.284;5.758;2022-12-07T01:47:57;2.10;99.90
43858;DHT22;29507;51.284;5.758;2022-12-07T01:50:26;2.20;99.90
43858;DHT22;29507;51.284;5.758;2022-12-07T01:52:55;2.10;99.90
43858;DHT22;29507;51.284;5.758;2022-12-07T01:55:22;2.10;99.90
43858;DHT22;29507;51.284;5.758;2022-12-07T01:57:49;2.00;99.90
43858;DHT22;29507;51.284;5.758;2022-12-07T02:00:16;2.10;99.90
43858;DHT22;29507;51.284;5.758;2022-12-07T02:03:00;2.20;99.90
43858;DHT22;29507;51.284;5.758;2022-12-07T02:05:34;2.30;99.90
43858;DHT22;29507;51.284;5.758;2022-12-07T02:08:00;2.40;99.90
43858;DHT22;29507;51.284;5.758;2022-12-07T02:10:28;2.50;99.90
43858;DHT22;29507;51.284;5.758;2022-12-07T02:13:13;2.60;99.90
43858;DHT22;29507;51.284;5.758;2022-12-07T02:21:51;2.70;99.90
43858;DHT22;29507;51.284;5.758;2022-12-07T02:29:57;2.70;99.90
43858;DHT22;29507;51.284;5.758;2022-12-07T02:35:15;2.70;99.90
43858;DHT22;29507;51.284;5.758;2022-12-07T02:37:51;2.70;99.90
43858;DHT22;29507;51.284;5.758;2022-12-07T02:40:31;2.70;99.90
43858;DHT22;29507;51.284;5.758;2022-12-07T02:43:08;2.70;99.90
43858;DHT22;29507;51.284;5.758;2022-12-07T02:45:38;2.70;99.90
43858;DHT22;29507;51.284;5.758;2022-12-07T02:48:06;2.60;99.90
43858;DHT22;29507;51.284;5.758;2022-12-07T02:50:32;2.60;99.90
43858;DHT22;29507;51.284;5.758;2022-12-07T02:52:58;2.70;99.90
43858;DHT22;29507;51.284;5.758;2022-12-07T02:55:29;2.70;99.90
43858;DHT22;29507;51.284;5.758;2022-12-07T02:58:15;2.70;99.90
43858;DHT22;29507;51.284;5.758;2022-12-07T03:03:59;2.80;99.90
43858;DHT22;29507;51.284;5.758;2022-12-07T03:06:32;2.80;99.90
43858;DHT22;29507;51.284;5.758;2022-12-07T03:09:13;2.80;99.90
43858;DHT22;29507;51.284;5.758;2022-12-07T03:12:06;2.90;99.90
43858;DHT22;29507;51.284;5.758;2022-12-07T03:14:39;2.90;99.90
43858;DHT22;29507;51.284;5.758;2022-12-07T03:17:14;2.90;99.90
43858;DHT22;29507;51.284;5.758;2022-12-07T03:19:43;2.80;99.90
43858;DHT22;29507;51.284;5.758;2022-12-07T03:22:12;2.80;99.90
43858;DHT22;29507;51.284;5.758;2022-12-07T03:24:52;2.70;99.90
43858;DHT22;29507;51.284;5.758;2022-12-07T03:27:25;2.60;99.90
43858;DHT22;29507;51.284;5.758;2022-12-07T03:30:06;2.50;99.90
43858;DHT22;29507;51.284;5.758;2022-12-07T03:32:55;2.50;99.90
43858;DHT22;29507;51.284;5.758;2022-12-07T03:40:49;2.50;99.90
43858;DHT22;29507;51.284;5.758;2022-12-07T03:43:18;2.60;99.90
43858;DHT22;29507;51.284;5.758;2022-12-07T03:48:27;2.60;99.90
43858;DHT22;29507;51.284;5.758;2022-12-07T03:51:19;2.60;99.90
43858;DHT22;29507;51.284;5.758;2022-12-07T03:53:54;2.60;99.90
43858;DHT22;29507;51.284;5.758;2022-12-07T03:56:22;2.50;99.90
43858;DHT22;29507;51.284;5.758;2022-12-07T03:58:48;2.50;99.90
43858;DHT22;29507;51.284;5.758;2022-12-07T04:01:14;2.50;99.90
43858;DHT22;29507;51.284;5.758;2022-12-07T04:03:40;2.50;99.90
43858;DHT22;29507;51.284;5.758;2022-12-07T04:06:05;2.60;99.90
43858;DHT22;29507;51.284;5.758;2022-12-07T04:08:31;2.60;99.90
43858;DHT22;29507;51.284;5.758;2022-12-07T04:10:57;2.70;99.90
43858;DHT22;29507;51.284;5.758;2022-12-07T04:13:22;2.70;99.90
43858;DHT22;29507;51.284;5.758;2022-12-07T04:15:48;2.80;99.90
43858;DHT22;29507;51.284;5.758;2022-12-07T04:18:14;2.80;99.90
43858;DHT22;29507;51.284;5.758;2022-12-07T04:20:39;2.80;99.90
43858;DHT22;29507;51.284;5.758;2022-12-07T04:23:05;2.80;99.90
43858;DHT22;29507;51.284;5.758;2022-12-07T04:25:30;2.80;99.90
43858;DHT22;29507;51.284;5.758;2022-12-07T04:27:56;2.90;99.90
43858;DHT22;29507;51.284;5.758;2022-12-07T04:30:22;2.90;99.90
43858;DHT22;29507;51.284;5.758;2022-12-07T04:32:47;2.90;99.90
43858;DHT22;29507;51.284;5.758;2022-12-07T04:35:13;2.90;99.90
43858;DHT22;29507;51.284;5.758;2022-12-07T04:37:39;2.90;99.90
43858;DHT22;29507;51.284;5.758;2022-12-07T04:40:09;2.80;99.90
43858;DHT22;29507;51.284;5.758;2022-12-07T04:42:36;2.90;99.90
43858;DHT22;29507;51.284;5.758;2022-12-07T04:45:02;2.80;99.90
43858;DHT22;29507;51.284;5.758;2022-12-07T04:47:28;2.90;99.90
43858;DHT22;29507;51.284;5.758;2022-12-07T04:49:54;2.90;99.90
43858;DHT22;29507;51.284;5.758;2022-12-07T04:52:19;3.00;99.90
43858;DHT22;29507;51.284;5.758;2022-12-07T04:54:45;3.00;99.90
43858;DHT22;29507;51.284;5.758;2022-12-07T04:57:11;3.00;99.90
43858;DHT22;29507;51.284;5.758;2022-12-07T04:59:36;3.00;99.90
43858;DHT22;29507;51.284;5.758;2022-12-07T05:02:02;3.00;99.90
43858;DHT22;29507;51.284;5.758;2022-12-07T05:04:28;3.00;99.90
43858;DHT22;29507;51.284;5.758;2022-12-07T05:06:53;3.00;99.90
43858;DHT22;29507;51.284;5.758;2022-12-07T05:09:19;3.00;99.90
43858;DHT22;29507;51.284;5.758;2022-12-07T05:11:45;3.10;99.90
43858;DHT22;29507;51.284;5.758;2022-12-07T05:14:16;3.10;99.90
43858;DHT22;29507;51.284;5.758;2022-12-07T05:16:44;3.10;99.90
43858;DHT22;29507;51.284;5.758;2022-12-07T05:19:10;3.00;99.90
43858;DHT22;29507;51.284;5.758;2022-12-07T05:21:36;3.10;99.90
43858;DHT22;29507;51.284;5.758;2022-12-07T05:24:03;3.10;99.90
43858;DHT22;29507;51.284;5.758;2022-12-07T05:26:29;3.10;99.90
43858;DHT22;29507;51.284;5.758;2022-12-07T05:28:55;3.10;99.90
43858;DHT22;29507;51.284;5.758;2022-12-07T05:31:24;3.10;99.90
43858;DHT22;29507;51.284;5.758;2022-12-07T05:33:50;3.10;99.90
43858;DHT22;29507;51.284;5.758;2022-12-07T05:36:15;3.10;99.90
43858;DHT22;29507;51.284;5.758;2022-12-07T05:38:41;3.10;99.90
43858;DHT22;29507;51.284;5.758;2022-12-07T05:41:08;3.20;99.90
43858;DHT22;29507;51.284;5.758;2022-12-07T05:43:54;3.20;99.90
43858;DHT22;29507;51.284;5.758;2022-12-07T05:46:20;3.20;99.90
43858;DHT22;29507;51.284;5.758;2022-12-07T05:48:45;3.20;99.90
43858;DHT22;29507;51.284;5.758;2022-12-07T05:51:11;3.20;99.90
43858;DHT22;29507;51.284;5.758;2022-12-07T05:53:37;3.20;99.90
43858;DHT22;29507;51.284;5.758;2022-12-07T05:56:02;3.10;99.90
43858;DHT22;29507;51.284;5.758;2022-12-07T05:58:28;3.10;99.90
43858;DHT22;29507;51.284;5.758;2022-12-07T06:01:19;3.10;99.90
43858;DHT22;29507;51.284;5.758;2022-12-07T06:03:45;3.00;99.90
43858;DHT22;29507;51.284;5.758;2022-12-07T06:06:11;3.10;99.90
43858;DHT22;29507;51.284;5.758;2022-12-07T06:08:36;3.10;99.90
43858;DHT22;29507;51.284;5.758;2022-12-07T06:11:02;3.20;99.90
43858;DHT22;29507;51.284;5.758;2022-12-07T06:13:46;3.20;99.90
43858;DHT22;29507;51.284;5.758;2022-12-07T06:16:12;3.20;99.90
43858;DHT22;29507;51.284;5.758;2022-12-07T06:18:37;3.20;99.90
43858;DHT22;29507;51.284;5.758;2022-12-07T06:21:03;3.10;99.90
43858;DHT22;29507;51.284;5.758;2022-12-07T06:23:28;3.10;99.90
43858;DHT22;29507;51.284;5.758;2022-12-07T06:25:54;3.00;99.90
43858;DHT22;29507;51.284;5.758;2022-12-07T06:28:20;3.00;99.90
43858;DHT22;29507;51.284;5.758;2022-12-07T06:30:45;3.00;99.90
43858;DHT22;29507;51.284;5.758;2022-12-07T06:33:11;3.00;99.90
43858;DHT22;29507;51.284;5.758;2022-12-07T06:35:36;2.90;99.90
43858;DHT22;29507;51.284;5.758;2022-12-07T06:38:02;2.90;99.90
43858;DHT22;29507;51.284;5.758;2022-12-07T06:40:28;2.90;99.90
43858;DHT22;29507;51.284;5.758;2022-12-07T06:42:53;3.00;99.90
43858;DHT22;29507;51.284;5.758;2022-12-07T06:45:19;3.00;99.90
43858;DHT22;29507;51.284;5.758;2022-12-07T06:47:44;2.90;99.90
43858;DHT22;29507;51.284;5.758;2022-12-07T06:50:10;2.90;99.90
43858;DHT22;29507;51.284;5.758;2022-12-07T06:52:35;2.90;99.90
43858;DHT22;29507;51.284;5.758;2022-12-07T06:55:01;2.90;99.90
43858;DHT22;29507;51.284;5.758;2022-12-07T06:57:26;2.90;99.90
43858;DHT22;29507;51.284;5.758;2022-12-07T06:59:52;2.90;99.90
43858;DHT22;29507;51.284;5.758;2022-12-07T07:02:18;2.90;99.90
43858;DHT22;29507;51.284;5.758;2022-12-07T07:04:43;2.70;99.90
43858;DHT22;29507;51.284;5.758;2022-12-07T07:07:09;2.70;99.90
43858;DHT22;29507;51.284;5.758;2022-12-07T07:09:34;2.70;99.90
43858;DHT22;29507;51.284;5.758;2022-12-07T07:12:00;2.60;99.90
43858;DHT22;29507;51.284;5.758;2022-12-07T07:14:25;2.50;99.90
43858;DHT22;29507;51.284;5.758;2022-12-07T07:16:51;2.40;99.90
43858;DHT22;29507;51.284;5.758;2022-12-07T07:19:17;2.30;99.90
43858;DHT22;29507;51.284;5.758;2022-12-07T07:21:42;2.30;99.90
43858;DHT22;29507;51.284;5.758;2022-12-07T07:24:08;2.30;99.90
43858;DHT22;29507;51.284;5.758;2022-12-07T07:26:33;2.30;99.90
43858;DHT22;29507;51.284;5.758;2022-12-07T07:28:59;2.40;99.90
43858;DHT22;29507;51.284;5.758;2022-12-07T07:31:25;2.30;99.90
43858;DHT22;29507;51.284;5.758;2022-12-07T07:33:50;2.20;99.90
43858;DHT22;29507;51.284;5.758;2022-12-07T07:36:16;2.30;99.90
43858;DHT22;29507;51.284;5.758;2022-12-07T07:38:41;2.30;99.90
43858;DHT22;29507;51.284;5.758;2022-12-07T07:41:07;2.40;99.90
43858;DHT22;29507;51.284;5.758;2022-12-07T07:43:33;2.50;99.90
43858;DHT22;29507;51.284;5.758;2022-12-07T07:45:58;2.50;99.90
43858;DHT22;29507;51.284;5.758;2022-12-07T07:48:24;2.50;99.90
43858;DHT22;29507;51.284;5.758;2022-12-07T07:50:51;2.50;99.90
43858;DHT22;29507;51.284;5.758;2022-12-07T07:53:16;2.60;99.90
43858;DHT22;29507;51.284;5.758;2022-12-07T07:55:51;2.60;99.90
43858;DHT22;29507;51.284;5.758;2022-12-07T07:58:17;2.50;99.90
43858;DHT22;29507;51.284;5.758;2022-12-07T08:00:42;2.50;99.90
43858;DHT22;29507;51.284;5.758;2022-12-07T08:03:08;2.40;99.90
43858;DHT22;29507;51.284;5.758;2022-12-07T08:05:33;2.40;99.90
43858;DHT22;29507;51.284;5.758;2022-12-07T08:07:59;2.40;99.90
43858;DHT22;29507;51.284;5.758;2022-12-07T08:10:25;2.40;99.90
43858;DHT22;29507;51.284;5.758;2022-12-07T08:12:50;2.50;99.90
43858;DHT22;29507;51.284;5.758;2022-12-07T08:15:37;2.60;99.90
43858;DHT22;29507;51.284;5.758;2022-12-07T08:18:03;2.70;99.90
43858;DHT22;29507;51.284;5.758;2022-12-07T08:20:33;2.70;99.90
43858;DHT22;29507;51.284;5.758;2022-12-07T08:23:00;2.80;99.90
43858;DHT22;29507;51.284;5.758;2022-12-07T08:25:26;2.80;99.90
43858;DHT22;29507;51.284;5.758;2022-12-07T08:27:53;2.90;99.90
43858;DHT22;29507;51.284;5.758;2022-12-07T08:30:19;2.90;99.90
43858;DHT22;29507;51.284;5.758;2022-12-07T08:32:45;3.00;99.90
43858;DHT22;29507;51.284;5.758;2022-12-07T08:35:11;3.10;99.90
43858;DHT22;29507;51.284;5.758;2022-12-07T08:37:37;3.20;99.90
43858;DHT22;29507;51.284;5.758;2022-12-07T08:40:04;3.20;99.90
43858;DHT22;29507;51.284;5.758;2022-12-07T08:42:30;3.30;99.90
43858;DHT22;29507;51.284;5.758;2022-12-07T08:45:04;3.30;99.90
43858;DHT22;29507;51.284;5.758;2022-12-07T08:47:30;3.30;99.90
43858;DHT22;29507;51.284;5.758;2022-12-07T08:49:56;3.30;99.90
43858;DHT22;29507;51.284;5.758;2022-12-07T08:52:22;3.30;99.90
43858;DHT22;29507;51.284;5.758;2022-12-07T08:54:48;3.30;99.90
43858;DHT22;29507;51.284;5.758;2022-12-07T08:57:14;3.40;99.90
43858;DHT22;29507;51.284;5.758;2022-12-07T08:59:39;3.50;99.90
43858;DHT22;29507;51.284;5.758;2022-12-07T09:02:05;3.60;99.90
43858;DHT22;29507;51.284;5.758;2022-12-07T09:04:31;3.80;99.90
43858;DHT22;29507;51.284;5.758;2022-12-07T09:06:57;3.80;99.90
43858;DHT22;29507;51.284;5.758;2022-12-07T09:09:22;3.80;99.90
43858;DHT22;29507;51.284;5.758;2022-12-07T09:11:48;3.70;99.90
43858;DHT22;29507;51.284;5.758;2022-12-07T09:14:14;3.80;99.90
43858;DHT22;29507;51.284;5.758;2022-12-07T09:16:39;3.80;99.90
43858;DHT22;29507;51.284;5.758;2022-12-07T09:19:05;3.80;99.90
43858;DHT22;29507;51.284;5.758;2022-12-07T09:21:31;3.90;99.90
43858;DHT22;29507;51.284;5.758;2022-12-07T09:23:56;3.80;99.90
43858;DHT22;29507;51.284;5.758;2022-12-07T09:26:22;3.80;99.90
43858;DHT22;29507;51.284;5.758;2022-12-07T09:28:47;3.90;99.90
43858;DHT22;29507;51.284;5.758;2022-12-07T09:31:13;3.90;99.90
43858;DHT22;29507;51.284;5.758;2022-12-07T09:33:38;4.00;99.90
43858;DHT22;29507;51.284;5.758;2022-12-07T09:36:04;4.10;99.90
43858;DHT22;29507;51.284;5.758;2022-12-07T09:38:31;4.20;99.90
43858;DHT22;29507;51.284;5.758;2022-12-07T09:40:56;4.40;99.90
43858;DHT22;29507;51.284;5.758;2022-12-07T09:43:24;4.40;99.90
43858;DHT22;29507;51.284;5.758;2022-12-07T09:45:52;4.40;99.90
43858;DHT22;29507;51.284;5.758;2022-12-07T09:48:30;4.40;99.90
43858;DHT22;29507;51.284;5.758;2022-12-07T09:50:58;4.40;99.90
43858;DHT22;29507;51.284;5.758;2022-12-07T09:53:33;4.40;99.90
43858;DHT22;29507;51.284;5.758;2022-12-07T09:56:00;4.40;99.90
43858;DHT22;29507;51.284;5.758;2022-12-07T09:58:27;4.40;99.90
43858;DHT22;29507;51.284;5.758;2022-12-07T10:00:57;4.50;99.90
43858;DHT22;29507;51.284;5.758;2022-12-07T10:03:28;4.50;99.90
43858;DHT22;29507;51.284;5.758;2022-12-07T10:05:55;4.60;99.90
43858;DHT22;29507;51.284;5.758;2022-12-07T10:08:21;4.60;99.90
43858;DHT22;29507;51.284;5.758;2022-12-07T10:10:54;4.70;99.90
43858;DHT22;29507;51.284;5.758;2022-12-07T10:13:38;4.80;99.90
43858;DHT22;29507;51.284;5.758;2022-12-07T10:16:04;4.90;99.90
43858;DHT22;29507;51.284;5.758;2022-12-07T10:18:41;5.00;99.90
43858;DHT22;29507;51.284;5.758;2022-12-07T10:21:19;5.00;99.90
43858;DHT22;29507;51.284;5.758;2022-12-07T10:24:03;5.00;99.90
43858;DHT22;29507;51.284;5.758;2022-12-07T10:26:31;5.00;99.90
43858;DHT22;29507;51.284;5.758;2022-12-07T10:29:24;5.10;99.90
43858;DHT22;29507;51.284;5.758;2022-12-07T10:32:01;5.00;99.90
43858;DHT22;29507;51.284;5.758;2022-12-07T10:34:37;5.10;99.90
43858;DHT22;29507;51.284;5.758;2022-12-07T10:37:16;5.20;99.90
43858;DHT22;29507;51.284;5.758;2022-12-07T10:39:56;5.30;99.90
43858;DHT22;29507;51.284;5.758;2022-12-07T10:42:24;5.30;99.90
43858;DHT22;29507;51.284;5.758;2022-12-07T10:45:16;5.50;99.90
43858;DHT22;29507;51.284;5.758;2022-12-07T11:07:45;6.40;99.90
43858;DHT22;29507;51.284;5.758;2022-12-07T11:10:44;6.20;99.90
43858;DHT22;29507;51.284;5.758;2022-12-07T11:13:16;6.60;99.90
43858;DHT22;29507;51.284;5.758;2022-12-07T11:21:21;7.60;99.90
43858;DHT22;29507;51.284;5.758;2022-12-07T11:24:04;7.80;99.90
43858;DHT22;29507;51.284;5.758;2022-12-07T11:26:44;7.60;99.90
43858;DHT22;29507;51.284;5.758;2022-12-07T11:36:50;7.60;99.90
43858;DHT22;29507;51.284;5.758;2022-12-07T11:39:26;7.90;99.90
43858;DHT22;29507;51.284;5.758;2022-12-07T11:42:02;7.80;99.90
43858;DHT22;29507;51.284;5.758;2022-12-07T11:44:50;8.10;99.90
43858;DHT22;29507;51.284;5.758;2022-12-07T11:50:34;9.00;99.90
43858;DHT22;29507;51.284;5.758;2022-12-07T11:55:54;9.90;99.90
43858;DHT22;29507;51.284;5.758;2022-12-07T12:03:42;10.40;99.90
43858;DHT22;29507;51.284;5.758;2022-12-07T12:06:09;9.70;99.90
43858;DHT22;29507;51.284;5.758;2022-12-07T12:08:46;10.00;99.90
43858;DHT22;29507;51.284;5.758;2022-12-07T12:22:35;8.20;99.90
43858;DHT22;29507;51.284;5.758;2022-12-07T12:25:05;7.80;99.90
43858;DHT22;29507;51.284;5.758;2022-12-07T12:27:37;7.50;99.90
43858;DHT22;29507;51.284;5.758;2022-12-07T12:30:22;7.40;99.90
43858;DHT22;29507;51.284;5.758;2022-12-07T12:32:49;7.50;99.90
43858;DHT22;29507;51.284;5.758;2022-12-07T12:35:35;7.40;99.90
43858;DHT22;29507;51.284;5.758;2022-12-07T12:40:45;7.20;99.90
43858;DHT22;29507;51.284;5.758;2022-12-07T12:43:43;7.10;99.90
43858;DHT22;29507;51.284;5.758;2022-12-07T12:51:45;5.70;99.90
43858;DHT22;29507;51.284;5.758;2022-12-07T12:57:03;5.40;99.90
43858;DHT22;29507;51.284;5.758;2022-12-07T12:59:41;5.40;99.90
43858;DHT22;29507;51.284;5.758;2022-12-07T13:15:45;5.60;99.90
43858;DHT22;29507;51.284;5.758;2022-12-07T13:23:36;5.90;99.90
43858;DHT22;29507;51.284;5.758;2022-12-07T13:26:13;6.00;99.90
43858;DHT22;29507;51.284;5.758;2022-12-07T13:28:41;6.00;99.90
43858;DHT22;29507;51.284;5.758;2022-12-07T13:37:02;6.10;99.90
43858;DHT22;29507;51.284;5.758;2022-12-07T13:39:32;6.50;99.90
43858;DHT22;29507;51.284;5.758;2022-12-07T13:41:59;6.90;99.90
43858;DHT22;29507;51.284;5.758;2022-12-07T13:44:27;6.50;99.90
43858;DHT22;29507;51.284;5.758;2022-12-07T13:49:54;6.00;99.90
43858;DHT22;29507;51.284;5.758;2022-12-07T13:54:54;5.70;99.90
43858;DHT22;29507;51.284;5.758;2022-12-07T13:57:21;5.60;99.90
43858;DHT22;29507;51.284;5.758;2022-12-07T13:59:47;5.60;99.90
43858;DHT22;29507;51.284;5.758;2022-12-07T14:02:28;5.60;99.90
43858;DHT22;29507;51.284;5.758;2022-12-07T14:05:14;5.60;99.90
43858;DHT22;29507;51.284;5.758;2022-12-07T14:07:54;5.70;99.90
43858;DHT22;29507;51.284;5.758;2022-12-07T14:10:40;5.90;99.90
43858;DHT22;29507;51.284;5.758;2022-12-07T14:13:30;7.10;99.90
43858;DHT22;29507;51.284;5.758;2022-12-07T14:15:57;7.50;99.90
43858;DHT22;29507;51.284;5.758;2022-12-07T14:18:38;6.80;99.90
43858;DHT22;29507;51.284;5.758;2022-12-07T14:21:14;6.30;99.90
43858;DHT22;29507;51.284;5.758;2022-12-07T14:23:41;5.90;99.90
43858;DHT22;29507;51.284;5.758;2022-12-07T14:26:15;5.70;99.90
43858;DHT22;29507;51.284;5.758;2022-12-07T14:28:42;5.50;99.90
43858;DHT22;29507;51.284;5.758;2022-12-07T14:31:15;5.70;99.90
43858;DHT22;29507;51.284;5.758;2022-12-07T14:33:42;6.60;99.90
43858;DHT22;29507;51.284;5.758;2022-12-07T14:36:12;7.30;99.90
43858;DHT22;29507;51.284;5.758;2022-12-07T14:38:38;7.30;99.90
43858;DHT22;29507;51.284;5.758;2022-12-07T14:41:10;6.60;99.90
43858;DHT22;29507;51.284;5.758;2022-12-07T14:43:55;6.00;99.90
43858;DHT22;29507;51.284;5.758;2022-12-07T14:46:21;5.70;99.90
43858;DHT22;29507;51.284;5.758;2022-12-07T14:48:47;5.40;99.90
43858;DHT22;29507;51.284;5.758;2022-12-07T14:51:13;5.20;99.90
43858;DHT22;29507;51.284;5.758;2022-12-07T14:53:50;5.10;99.90
43858;DHT22;29507;51.284;5.758;2022-12-07T14:56:17;5.00;99.90
43858;DHT22;29507;51.284;5.758;2022-12-07T14:58:42;4.90;99.90
43858;DHT22;29507;51.284;5.758;2022-12-07T15:01:08;4.90;99.90
43858;DHT22;29507;51.284;5.758;2022-12-07T15:03:34;4.80;99.90
43858;DHT22;29507;51.284;5.758;2022-12-07T15:06:00;4.70;99.90
43858;DHT22;29507;51.284;5.758;2022-12-07T15:08:26;4.50;99.90
43858;DHT22;29507;51.284;5.758;2022-12-07T15:10:52;4.50;99.90
43858;DHT22;29507;51.284;5.758;2022-12-07T15:13:18;4.40;99.90
43858;DHT22;29507;51.284;5.758;2022-12-07T15:16:02;4.50;99.90
43858;DHT22;29507;51.284;5.758;2022-12-07T15:18:27;4.50;99.90
43858;DHT22;29507;51.284;5.758;2022-12-07T15:20:53;4.50;99.90
43858;DHT22;29507;51.284;5.758;2022-12-07T15:23:18;4.50;99.90
43858;DHT22;29507;51.284;5.758;2022-12-07T15:25:46;4.50;99.90
43858;DHT22;29507;51.284;5.758;2022-12-07T15:28:12;4.50;99.90
43858;DHT22;29507;51.284;5.758;2022-12-07T15:30:40;4.40;99.90
43858;DHT22;29507;51.284;5.758;2022-12-07T15:33:06;4.40;99.90
43858;DHT22;29507;51.284;5.758;2022-12-07T15:35:31;4.40;99.90
43858;DHT22;29507;51.284;5.758;2022-12-07T15:37:57;4.30;99.90
43858;DHT22;29507;51.284;5.758;2022-12-07T15:40:22;4.30;99.90
43858;DHT22;29507;51.284;5.758;2022-12-07T15:42:48;4.30;99.90
43858;DHT22;29507;51.284;5.758;2022-12-07T15:45:14;4.40;99.90
43858;DHT22;29507;51.284;5.758;2022-12-07T15:47:42;4.40;99.90
43858;DHT22;29507;51.284;5.758;2022-12-07T15:50:11;4.50;99.90
43858;DHT22;29507;51.284;5.758;2022-12-07T15:52:37;4.40;99.90
43858;DHT22;29507;51.284;5.758;2022-12-07T15:55:03;4.30;99.90
43858;DHT22;29507;51.284;5.758;2022-12-07T15:57:30;4.30;99.90
43858;DHT22;29507;51.284;5.758;2022-12-07T15:59:56;4.20;99.90
43858;DHT22;29507;51.284;5.758;2022-12-07T16:02:21;4.10;99.90
43858;DHT22;29507;51.284;5.758;2022-12-07T16:04:48;4.10;99.90
43858;DHT22;29507;51.284;5.758;2022-12-07T16:07:13;4.00;99.90
43858;DHT22;29507;51.284;5.758;2022-12-07T16:09:41;4.00;99.90
43858;DHT22;29507;51.284;5.758;2022-12-07T16:12:07;3.90;99.90
43858;DHT22;29507;51.284;5.758;2022-12-07T16:14:33;3.80;99.90
43858;DHT22;29507;51.284;5.758;2022-12-07T16:16:59;3.70;99.90
43858;DHT22;29507;51.284;5.758;2022-12-07T16:19:24;3.70;99.90
43858;DHT22;29507;51.284;5.758;2022-12-07T16:21:50;3.60;99.90
43858;DHT22;29507;51.284;5.758;2022-12-07T16:24:16;3.60;99.90
43858;DHT22;29507;51.284;5.758;2022-12-07T16:26:42;3.60;99.90
43858;DHT22;29507;51.284;5.758;2022-12-07T16:29:11;3.60;99.90
43858;DHT22;29507;51.284;5.758;2022-12-07T16:31:37;3.50;99.90
43858;DHT22;29507;51.284;5.758;2022-12-07T16:34:03;3.50;99.90
43858;DHT22;29507;51.284;5.758;2022-12-07T16:36:28;3.50;99.90
43858;DHT22;29507;51.284;5.758;2022-12-07T16:38:54;3.50;99.90
43858;DHT22;29507;51.284;5.758;2022-12-07T16:41:20;3.60;99.90
43858;DHT22;29507;51.284;5.758;2022-12-07T16:43:46;3.60;99.90
43858;DHT22;29507;51.284;5.758;2022-12-07T16:46:12;3.60;99.90
43858;DHT22;29507;51.284;5.758;2022-12-07T16:48:39;3.70;99.90
43858;DHT22;29507;51.284;5.758;2022-12-07T16:51:06;3.70;99.90
43858;DHT22;29507;51.284;5.758;2022-12-07T16:53:34;3.70;99.90
43858;DHT22;29507;51.284;5.758;2022-12-07T16:56:00;3.70;99.90
43858;DHT22;29507;51.284;5.758;2022-12-07T16:58:25;3.70;99.90
43858;DHT22;29507;51.284;5.758;2022-12-07T17:00:51;3.70;99.90
43858;DHT22;29507;51.284;5.758;2022-12-07T17:03:17;3.70;99.90
43858;DHT22;29507;51.284;5.758;2022-12-07T17:05:44;3.70;99.90
43858;DHT22;29507;51.284;5.758;2022-12-07T17:08:10;3.70;99.90
43858;DHT22;29507;51.284;5.758;2022-12-07T17:10:40;3.70;99.90
43858;DHT22;29507;51.284;5.758;2022-12-07T17:13:07;3.70;99.90
43858;DHT22;29507;51.284;5.758;2022-12-07T17:16:03;3.70;99.90
43858;DHT22;29507;51.284;5.758;2022-12-07T17:18:32;3.70;99.90
43858;DHT22;29507;51.284;5.758;2022-12-07T17:21:06;3.70;99.90
43858;DHT22;29507;51.284;5.758;2022-12-07T17:23:32;3.70;99.90
43858;DHT22;29507;51.284;5.758;2022-12-07T17:26:10;3.70;99.90
43858;DHT22;29507;51.284;5.758;2022-12-07T17:28:36;3.70;99.90
43858;DHT22;29507;51.284;5.758;2022-12-07T17:31:05;3.60;99.90
43858;DHT22;29507;51.284;5.758;2022-12-07T17:33:32;3.60;99.90
43858;DHT22;29507;51.284;5.758;2022-12-07T17:35:59;3.70;99.90
43858;DHT22;29507;51.284;5.758;2022-12-07T17:38:24;3.70;99.90
43858;DHT22;29507;51.284;5.758;2022-12-07T17:40:50;3.80;99.90
43858;DHT22;29507;51.284;5.758;2022-12-07T17:43:15;3.80;99.90
43858;DHT22;29507;51.284;5.758;2022-12-07T17:45:41;3.80;99.90
43858;DHT22;29507;51.284;5.758;2022-12-07T17:48:07;3.80;99.90
43858;DHT22;29507;51.284;5.758;2022-12-07T17:50:32;3.80;99.90
43858;DHT22;29507;51.284;5.758;2022-12-07T17:53:17;3.80;99.90
43858;DHT22;29507;51.284;5.758;2022-12-07T17:55:43;3.80;99.90
43858;DHT22;29507;51.284;5.758;2022-12-07T17:58:08;3.80;99.90
43858;DHT22;29507;51.284;5.758;2022-12-07T18:00:34;3.80;99.90